sensor_id;sensor_type;location;lat;lon;timestamp;temperature;humidity
6114;DHT22;3087;48.392;10.836;2023-05-19T00:02:10;11.70;99.90
6114;DHT22;3087;48.392;10.836;2023-05-19T00:04:36;11.80;99.90
6114;DHT22;3087;48.392;10.836;2023-05-19T00:07:02;11.80;99.90
6114;DHT22;3087;48.392;10.836;2023-05-19T00:09:28;11.80;99.90
6114;DHT22;3087;48.392;10.836;2023-05-19T00:11:54;11.90;99.90
6114;DHT22;3087;48.392;10.836;2023-05-19T00:14:21;11.80;99.90
6114;DHT22;3087;48.392;10.836;2023-05-19T00:16:47;11.80;99.90
6114;DHT22;3087;48.392;10.836;2023-05-19T00:19:13;11.80;99.90
6114;DHT22;3087;48.392;10.836;2023-05-19T00:21:38;11.80;99.90
6114;DHT22;3087;48.392;10.836;2023-05-19T00:24:05;11.60;99.90
6114;DHT22;3087;48.392;10.836;2023-05-19T00:26:31;11.50;99.90
6114;DHT22;3087;48.392;10.836;2023-05-19T00:28:56;11.80;99.90
6114;DHT22;3087;48.392;10.836;2023-05-19T00:31:22;11.60;99.90
6114;DHT22;3087;48.392;10.836;2023-05-19T00:33:48;11.40;99.90
6114;DHT22;3087;48.392;10.836;2023-05-19T00:36:13;11.40;99.90
6114;DHT22;3087;48.392;10.836;2023-05-19T00:38:39;11.50;99.90
6114;DHT22;3087;48.392;10.836;2023-05-19T00:41:06;11.40;99.90
6114;DHT22;3087;48.392;10.836;2023-05-19T00:43:32;11.30;99.90
6114;DHT22;3087;48.392;10.836;2023-05-19T00:45:58;11.40;99.90
6114;DHT22;3087;48.392;10.836;2023-05-19T00:48:25;11.30;99.90
6114;DHT22;3087;48.392;10.836;2023-05-19T00:50:52;11.40;99.90
6114;DHT22;3087;48.392;10.836;2023-05-19T00:53:19;11.40;99.90
6114;DHT22;3087;48.392;10.836;2023-05-19T00:55:46;11.30;99.90
6114;DHT22;3087;48.392;10.836;2023-05-19T00:58:13;11.40;99.90
6114;DHT22;3087;48.392;10.836;2023-05-19T01:00:39;11.70;99.90
6114;DHT22;3087;48.392;10.836;2023-05-19T01:03:05;9.40;99.90
6114;DHT22;3087;48.392;10.836;2023-05-19T01:05:40;11.50;99.90
6114;DHT22;3087;48.392;10.836;2023-05-19T01:08:07;12.40;99.90
6114;DHT22;3087;48.392;10.836;2023-05-19T01:10:33;11.80;99.90
6114;DHT22;3087;48.392;10.836;2023-05-19T01:13:00;11.60;99.90
6114;DHT22;3087;48.392;10.836;2023-05-19T01:15:26;12.30;99.90
6114;DHT22;3087;48.392;10.836;2023-05-19T01:18:10;11.70;99.90
6114;DHT22;3087;48.392;10.836;2023-05-19T01:20:40;11.60;99.90
6114;DHT22;3087;48.392;10.836;2023-05-19T01:31:40;9.40;99.90
6114;DHT22;3087;48.392;10.836;2023-05-19T01:34:08;12.30;99.90
6114;DHT22;3087;48.392;10.836;2023-05-19T01:36:36;11.90;99.90
6114;DHT22;3087;48.392;10.836;2023-05-19T01:39:03;11.70;99.90
6114;DHT22;3087;48.392;10.836;2023-05-19T01:41:29;11.30;99.90
6114;DHT22;3087;48.392;10.836;2023-05-19T01:43:57;11.20;99.90
6114;DHT22;3087;48.392;10.836;2023-05-19T01:46:23;11.10;99.90
6114;DHT22;3087;48.392;10.836;2023-05-19T01:48:50;11.10;99.90
6114;DHT22;3087;48.392;10.836;2023-05-19T01:51:16;9.50;99.90
6114;DHT22;3087;48.392;10.836;2023-05-19T01:53:42;12.80;99.90
6114;DHT22;3087;48.392;10.836;2023-05-19T01:56:08;11.00;99.90
6114;DHT22;3087;48.392;10.836;2023-05-19T01:58:56;12.30;99.90
6114;DHT22;3087;48.392;10.836;2023-05-19T02:01:38;12.30;99.90
6114;DHT22;3087;48.392;10.836;2023-05-19T02:04:23;10.90;99.90
6114;DHT22;3087;48.392;10.836;2023-05-19T02:10:09;10.80;99.90
6114;DHT22;3087;48.392;10.836;2023-05-19T02:12:36;10.70;99.90
6114;DHT22;3087;48.392;10.836;2023-05-19T02:15:15;11.00;99.90
6114;DHT22;3087;48.392;10.836;2023-05-19T02:17:43;13.30;99.90
6114;DHT22;3087;48.392;10.836;2023-05-19T02:20:13;12.20;99.90
6114;DHT22;3087;48.392;10.836;2023-05-19T02:22:39;12.00;99.90
6114;DHT22;3087;48.392;10.836;2023-05-19T02:25:06;11.60;99.90
6114;DHT22;3087;48.392;10.836;2023-05-19T02:27:36;12.00;99.90
6114;DHT22;3087;48.392;10.836;2023-05-19T02:30:03;10.60;99.90
6114;DHT22;3087;48.392;10.836;2023-05-19T02:32:30;10.60;99.90
6114;DHT22;3087;48.392;10.836;2023-05-19T02:34:56;12.20;99.90
6114;DHT22;3087;48.392;10.836;2023-05-19T02:37:22;10.40;99.90
6114;DHT22;3087;48.392;10.836;2023-05-19T02:39:49;13.10;99.90
6114;DHT22;3087;48.392;10.836;2023-05-19T02:42:14;10.40;99.90
6114;DHT22;3087;48.392;10.836;2023-05-19T02:44:42;8.70;99.90
6114;DHT22;3087;48.392;10.836;2023-05-19T02:47:08;10.70;99.90
6114;DHT22;3087;48.392;10.836;2023-05-19T02:49:34;10.40;99.90
6114;DHT22;3087;48.392;10.836;2023-05-19T02:52:03;10.30;99.90
6114;DHT22;3087;48.392;10.836;2023-05-19T02:54:29;10.30;99.90
6114;DHT22;3087;48.392;10.836;2023-05-19T02:56:56;12.40;99.90
6114;DHT22;3087;48.392;10.836;2023-05-19T02:59:22;11.10;99.90
6114;DHT22;3087;48.392;10.836;2023-05-19T03:01:48;10.10;99.90
6114;DHT22;3087;48.392;10.836;2023-05-19T03:04:13;11.10;99.90
6114;DHT22;3087;48.392;10.836;2023-05-19T03:06:39;10.20;99.90
6114;DHT22;3087;48.392;10.836;2023-05-19T03:09:06;10.30;99.90
6114;DHT22;3087;48.392;10.836;2023-05-19T03:11:32;10.20;99.90
6114;DHT22;3087;48.392;10.836;2023-05-19T03:13:58;12.00;99.90
6114;DHT22;3087;48.392;10.836;2023-05-19T03:16:23;10.90;99.90
6114;DHT22;3087;48.392;10.836;2023-05-19T03:18:50;12.20;99.90
6114;DHT22;3087;48.392;10.836;2023-05-19T03:21:15;8.90;99.90
6114;DHT22;3087;48.392;10.836;2023-05-19T03:23:41;10.90;99.90
6114;DHT22;3087;48.392;10.836;2023-05-19T03:26:07;12.10;99.90
6114;DHT22;3087;48.392;10.836;2023-05-19T03:28:32;10.40;99.90
6114;DHT22;3087;48.392;10.836;2023-05-19T03:30:58;10.80;99.90
6114;DHT22;3087;48.392;10.836;2023-05-19T03:33:23;10.60;99.90
6114;DHT22;3087;48.392;10.836;2023-05-19T03:35:49;12.10;99.90
6114;DHT22;3087;48.392;10.836;2023-05-19T03:38:15;11.20;99.90
6114;DHT22;3087;48.392;10.836;2023-05-19T03:40:40;10.20;99.90
6114;DHT22;3087;48.392;10.836;2023-05-19T03:43:06;12.60;99.90
6114;DHT22;3087;48.392;10.836;2023-05-19T03:45:32;10.20;99.90
6114;DHT22;3087;48.392;10.836;2023-05-19T03:47:58;8.30;99.90
6114;DHT22;3087;48.392;10.836;2023-05-19T03:50:23;11.30;99.90
6114;DHT22;3087;48.392;10.836;2023-05-19T03:52:49;12.10;99.90
6114;DHT22;3087;48.392;10.836;2023-05-19T03:55:14;11.50;99.90
6114;DHT22;3087;48.392;10.836;2023-05-19T03:57:40;10.40;99.90
6114;DHT22;3087;48.392;10.836;2023-05-19T04:00:08;11.20;99.90
6114;DHT22;3087;48.392;10.836;2023-05-19T04:02:35;10.30;99.90
6114;DHT22;3087;48.392;10.836;2023-05-19T04:05:01;10.90;99.90
6114;DHT22;3087;48.392;10.836;2023-05-19T04:07:29;10.30;99.90
6114;DHT22;3087;48.392;10.836;2023-05-19T04:09:55;10.30;99.90
6114;DHT22;3087;48.392;10.836;2023-05-19T04:12:21;11.50;99.90
6114;DHT22;3087;48.392;10.836;2023-05-19T04:14:47;10.50;99.90
6114;DHT22;3087;48.392;10.836;2023-05-19T04:17:13;10.90;99.90
6114;DHT22;3087;48.392;10.836;2023-05-19T04:19:38;13.40;99.90
6114;DHT22;3087;48.392;10.836;2023-05-19T04:22:04;10.50;99.90
6114;DHT22;3087;48.392;10.836;2023-05-19T04:24:30;10.50;99.90
6114;DHT22;3087;48.392;10.836;2023-05-19T04:26:56;11.60;99.90
6114;DHT22;3087;48.392;10.836;2023-05-19T04:29:27;11.90;99.90
6114;DHT22;3087;48.392;10.836;2023-05-19T04:31:54;11.80;99.90
6114;DHT22;3087;48.392;10.836;2023-05-19T04:34:20;11.90;99.90
6114;DHT22;3087;48.392;10.836;2023-05-19T04:36:46;11.00;99.90
6114;DHT22;3087;48.392;10.836;2023-05-19T04:39:12;11.70;99.90
6114;DHT22;3087;48.392;10.836;2023-05-19T04:41:38;10.60;99.90
6114;DHT22;3087;48.392;10.836;2023-05-19T04:44:09;10.70;99.90
6114;DHT22;3087;48.392;10.836;2023-05-19T04:46:35;10.70;99.90
6114;DHT22;3087;48.392;10.836;2023-05-19T04:49:00;10.80;99.90
6114;DHT22;3087;48.392;10.836;2023-05-19T04:51:27;12.40;99.90
6114;DHT22;3087;48.392;10.836;2023-05-19T04:53:56;11.10;99.90
6114;DHT22;3087;48.392;10.836;2023-05-19T04:56:21;12.10;99.90
6114;DHT22;3087;48.392;10.836;2023-05-19T04:58:48;11.60;99.90
6114;DHT22;3087;48.392;10.836;2023-05-19T05:01:13;11.80;99.90
6114;DHT22;3087;48.392;10.836;2023-05-19T05:03:41;11.90;99.90
6114;DHT22;3087;48.392;10.836;2023-05-19T05:06:07;11.20;99.90
6114;DHT22;3087;48.392;10.836;2023-05-19T05:08:33;12.50;99.90
6114;DHT22;3087;48.392;10.836;2023-05-19T05:10:59;12.20;99.90
6114;DHT22;3087;48.392;10.836;2023-05-19T05:13:25;11.20;99.90
6114;DHT22;3087;48.392;10.836;2023-05-19T05:15:51;11.30;99.90
6114;DHT22;3087;48.392;10.836;2023-05-19T05:18:17;11.30;99.90
6114;DHT22;3087;48.392;10.836;2023-05-19T05:20:43;11.40;99.90
6114;DHT22;3087;48.392;10.836;2023-05-19T05:23:10;11.50;99.90
6114;DHT22;3087;48.392;10.836;2023-05-19T05:25:40;11.60;99.90
6114;DHT22;3087;48.392;10.836;2023-05-19T05:28:05;11.70;99.90
6114;DHT22;3087;48.392;10.836;2023-05-19T05:30:32;11.80;99.90
6114;DHT22;3087;48.392;10.836;2023-05-19T05:32:58;12.10;99.90
6114;DHT22;3087;48.392;10.836;2023-05-19T05:35:24;12.50;99.90
6114;DHT22;3087;48.392;10.836;2023-05-19T05:37:52;11.70;99.90
6114;DHT22;3087;48.392;10.836;2023-05-19T05:40:21;11.80;99.90
6114;DHT22;3087;48.392;10.836;2023-05-19T05:42:46;11.70;99.90
6114;DHT22;3087;48.392;10.836;2023-05-19T05:45:12;11.80;99.90
6114;DHT22;3087;48.392;10.836;2023-05-19T05:47:38;11.60;99.90
6114;DHT22;3087;48.392;10.836;2023-05-19T05:50:07;11.80;99.90
6114;DHT22;3087;48.392;10.836;2023-05-19T05:52:34;11.70;99.90
6114;DHT22;3087;48.392;10.836;2023-05-19T05:55:00;11.50;99.90
6114;DHT22;3087;48.392;10.836;2023-05-19T05:57:26;11.60;99.90
6114;DHT22;3087;48.392;10.836;2023-05-19T05:59:55;12.10;99.90
6114;DHT22;3087;48.392;10.836;2023-05-19T06:02:21;12.60;99.90
6114;DHT22;3087;48.392;10.836;2023-05-19T06:04:46;12.60;99.90
6114;DHT22;3087;48.392;10.836;2023-05-19T06:07:12;12.20;99.90
6114;DHT22;3087;48.392;10.836;2023-05-19T06:09:38;15.30;99.90
6114;DHT22;3087;48.392;10.836;2023-05-19T06:12:03;12.30;99.90
6114;DHT22;3087;48.392;10.836;2023-05-19T06:14:30;12.20;99.90
6114;DHT22;3087;48.392;10.836;2023-05-19T06:16:56;15.10;99.90
6114;DHT22;3087;48.392;10.836;2023-05-19T06:19:22;12.60;99.90
6114;DHT22;3087;48.392;10.836;2023-05-19T06:21:49;14.30;99.90
6114;DHT22;3087;48.392;10.836;2023-05-19T06:24:15;12.70;99.90
6114;DHT22;3087;48.392;10.836;2023-05-19T06:26:41;15.70;99.90
6114;DHT22;3087;48.392;10.836;2023-05-19T06:29:06;14.80;99.90
6114;DHT22;3087;48.392;10.836;2023-05-19T06:31:32;12.90;99.90
6114;DHT22;3087;48.392;10.836;2023-05-19T06:33:57;14.60;99.90
6114;DHT22;3087;48.392;10.836;2023-05-19T06:36:24;15.70;99.90
6114;DHT22;3087;48.392;10.836;2023-05-19T06:38:49;15.70;99.90
6114;DHT22;3087;48.392;10.836;2023-05-19T06:41:16;11.70;99.90
6114;DHT22;3087;48.392;10.836;2023-05-19T06:43:41;13.70;99.90
6114;DHT22;3087;48.392;10.836;2023-05-19T06:46:07;13.90;99.90
6114;DHT22;3087;48.392;10.836;2023-05-19T06:48:33;13.80;99.90
6114;DHT22;3087;48.392;10.836;2023-05-19T06:50:59;14.20;99.90
6114;DHT22;3087;48.392;10.836;2023-05-19T06:53:24;14.10;99.90
6114;DHT22;3087;48.392;10.836;2023-05-19T06:55:50;15.40;99.90
6114;DHT22;3087;48.392;10.836;2023-05-19T06:58:16;14.40;99.90
6114;DHT22;3087;48.392;10.836;2023-05-19T07:00:42;14.20;99.90
6114;DHT22;3087;48.392;10.836;2023-05-19T07:03:08;14.50;99.90
6114;DHT22;3087;48.392;10.836;2023-05-19T07:05:33;11.80;99.90
6114;DHT22;3087;48.392;10.836;2023-05-19T07:07:59;14.70;99.90
6114;DHT22;3087;48.392;10.836;2023-05-19T07:10:26;14.80;99.90
6114;DHT22;3087;48.392;10.836;2023-05-19T07:12:52;14.80;99.90
6114;DHT22;3087;48.392;10.836;2023-05-19T07:15:18;14.70;99.90
6114;DHT22;3087;48.392;10.836;2023-05-19T07:17:43;14.60;99.90
6114;DHT22;3087;48.392;10.836;2023-05-19T07:20:09;14.40;99.90
6114;DHT22;3087;48.392;10.836;2023-05-19T07:22:36;14.30;99.90
6114;DHT22;3087;48.392;10.836;2023-05-19T07:25:04;14.30;99.90
6114;DHT22;3087;48.392;10.836;2023-05-19T07:27:30;14.40;99.90
6114;DHT22;3087;48.392;10.836;2023-05-19T07:29:56;14.40;99.90
6114;DHT22;3087;48.392;10.836;2023-05-19T07:32:21;14.50;99.90
6114;DHT22;3087;48.392;10.836;2023-05-19T07:34:47;15.10;99.90
6114;DHT22;3087;48.392;10.836;2023-05-19T07:37:13;14.90;99.90
6114;DHT22;3087;48.392;10.836;2023-05-19T07:39:38;14.50;99.90
6114;DHT22;3087;48.392;10.836;2023-05-19T07:42:07;14.30;99.90
6114;DHT22;3087;48.392;10.836;2023-05-19T07:44:33;14.00;99.90
6114;DHT22;3087;48.392;10.836;2023-05-19T07:46:59;14.80;99.90
6114;DHT22;3087;48.392;10.836;2023-05-19T07:49:25;14.20;99.90
6114;DHT22;3087;48.392;10.836;2023-05-19T07:51:50;16.30;99.90
6114;DHT22;3087;48.392;10.836;2023-05-19T07:54:16;15.20;99.90
6114;DHT22;3087;48.392;10.836;2023-05-19T07:56:42;14.10;99.90
6114;DHT22;3087;48.392;10.836;2023-05-19T07:59:08;14.40;99.90
6114;DHT22;3087;48.392;10.836;2023-05-19T08:01:33;16.20;99.90
6114;DHT22;3087;48.392;10.836;2023-05-19T08:03:59;13.80;99.90
6114;DHT22;3087;48.392;10.836;2023-05-19T08:06:25;13.60;99.90
6114;DHT22;3087;48.392;10.836;2023-05-19T08:08:50;15.60;99.90
6114;DHT22;3087;48.392;10.836;2023-05-19T08:11:16;14.40;99.90
6114;DHT22;3087;48.392;10.836;2023-05-19T08:13:42;15.60;99.90
6114;DHT22;3087;48.392;10.836;2023-05-19T08:16:08;15.90;99.90
6114;DHT22;3087;48.392;10.836;2023-05-19T08:18:33;15.20;99.90
6114;DHT22;3087;48.392;10.836;2023-05-19T08:20:59;15.20;99.90
6114;DHT22;3087;48.392;10.836;2023-05-19T08:23:25;14.90;99.90
6114;DHT22;3087;48.392;10.836;2023-05-19T08:25:51;15.50;99.90
6114;DHT22;3087;48.392;10.836;2023-05-19T08:28:17;14.40;99.90
6114;DHT22;3087;48.392;10.836;2023-05-19T08:30:42;15.20;99.90
6114;DHT22;3087;48.392;10.836;2023-05-19T08:33:08;15.40;99.90
6114;DHT22;3087;48.392;10.836;2023-05-19T08:35:33;12.70;99.90
6114;DHT22;3087;48.392;10.836;2023-05-19T08:37:59;13.90;99.90
6114;DHT22;3087;48.392;10.836;2023-05-19T08:40:25;12.70;99.90
6114;DHT22;3087;48.392;10.836;2023-05-19T08:42:53;14.30;99.90
6114;DHT22;3087;48.392;10.836;2023-05-19T08:45:18;13.80;99.90
6114;DHT22;3087;48.392;10.836;2023-05-19T08:47:45;13.60;99.90
6114;DHT22;3087;48.392;10.836;2023-05-19T08:50:15;13.90;99.90
6114;DHT22;3087;48.392;10.836;2023-05-19T08:57:59;13.70;99.90
6114;DHT22;3087;48.392;10.836;2023-05-19T09:00:25;14.00;99.90
6114;DHT22;3087;48.392;10.836;2023-05-19T09:02:52;15.30;99.90
6114;DHT22;3087;48.392;10.836;2023-05-19T09:05:18;14.50;99.90
6114;DHT22;3087;48.392;10.836;2023-05-19T09:07:44;15.00;99.90
6114;DHT22;3087;48.392;10.836;2023-05-19T09:10:11;15.70;99.90
6114;DHT22;3087;48.392;10.836;2023-05-19T09:12:45;15.00;99.90
6114;DHT22;3087;48.392;10.836;2023-05-19T09:15:12;14.80;99.90
6114;DHT22;3087;48.392;10.836;2023-05-19T09:17:40;14.50;99.90
6114;DHT22;3087;48.392;10.836;2023-05-19T09:20:09;14.60;99.90
6114;DHT22;3087;48.392;10.836;2023-05-19T09:22:44;15.00;99.90
6114;DHT22;3087;48.392;10.836;2023-05-19T09:25:21;15.30;99.90
6114;DHT22;3087;48.392;10.836;2023-05-19T09:27:48;15.40;99.90
6114;DHT22;3087;48.392;10.836;2023-05-19T09:30:18;15.30;99.90
6114;DHT22;3087;48.392;10.836;2023-05-19T09:32:46;15.10;99.90
6114;DHT22;3087;48.392;10.836;2023-05-19T09:35:13;15.00;99.90
6114;DHT22;3087;48.392;10.836;2023-05-19T09:37:42;15.20;99.90
6114;DHT22;3087;48.392;10.836;2023-05-19T09:40:09;15.30;99.90
6114;DHT22;3087;48.392;10.836;2023-05-19T09:42:39;15.40;99.90
6114;DHT22;3087;48.392;10.836;2023-05-19T09:45:06;15.20;99.90
6114;DHT22;3087;48.392;10.836;2023-05-19T09:47:42;15.10;99.90
6114;DHT22;3087;48.392;10.836;2023-05-19T09:50:11;15.10;99.90
6114;DHT22;3087;48.392;10.836;2023-05-19T09:52:46;15.10;99.90
6114;DHT22;3087;48.392;10.836;2023-05-19T09:55:13;15.20;99.90
6114;DHT22;3087;48.392;10.836;2023-05-19T09:57:39;15.10;99.90
6114;DHT22;3087;48.392;10.836;2023-05-19T10:00:06;15.00;99.90
6114;DHT22;3087;48.392;10.836;2023-05-19T10:02:43;14.90;99.90
6114;DHT22;3087;48.392;10.836;2023-05-19T10:05:12;15.00;99.90
6114;DHT22;3087;48.392;10.836;2023-05-19T10:07:42;15.00;99.90
6114;DHT22;3087;48.392;10.836;2023-05-19T10:10:11;14.80;99.90
6114;DHT22;3087;48.392;10.836;2023-05-19T10:12:38;15.50;99.90
6114;DHT22;3087;48.392;10.836;2023-05-19T10:15:15;14.70;99.90
6114;DHT22;3087;48.392;10.836;2023-05-19T10:17:42;15.50;99.90
6114;DHT22;3087;48.392;10.836;2023-05-19T10:20:14;14.60;99.90
6114;DHT22;3087;48.392;10.836;2023-05-19T10:22:42;14.90;99.90
6114;DHT22;3087;48.392;10.836;2023-05-19T10:25:09;15.40;99.90
6114;DHT22;3087;48.392;10.836;2023-05-19T10:27:39;15.70;99.90
6114;DHT22;3087;48.392;10.836;2023-05-19T10:30:14;15.80;99.90
6114;DHT22;3087;48.392;10.836;2023-05-19T10:32:43;16.00;99.90
6114;DHT22;3087;48.392;10.836;2023-05-19T10:35:38;15.70;99.90
6114;DHT22;3087;48.392;10.836;2023-05-19T10:38:16;15.60;99.90
6114;DHT22;3087;48.392;10.836;2023-05-19T10:41:01;15.60;99.90
6114;DHT22;3087;48.392;10.836;2023-05-19T10:46:14;15.80;99.90
6114;DHT22;3087;48.392;10.836;2023-05-19T10:48:43;15.50;99.90
6114;DHT22;3087;48.392;10.836;2023-05-19T10:51:10;15.40;99.90
6114;DHT22;3087;48.392;10.836;2023-05-19T10:53:40;15.20;99.90
6114;DHT22;3087;48.392;10.836;2023-05-19T10:56:05;15.20;99.90
6114;DHT22;3087;48.392;10.836;2023-05-19T11:01:06;14.60;99.90
6114;DHT22;3087;48.392;10.836;2023-05-19T11:03:51;15.10;99.90
6114;DHT22;3087;48.392;10.836;2023-05-19T11:08:58;14.40;99.90
6114;DHT22;3087;48.392;10.836;2023-05-19T11:11:46;14.40;99.90
6114;DHT22;3087;48.392;10.836;2023-05-19T11:14:14;14.60;99.90
6114;DHT22;3087;48.392;10.836;2023-05-19T11:16:41;14.40;99.90
6114;DHT22;3087;48.392;10.836;2023-05-19T11:19:08;14.30;99.90
6114;DHT22;3087;48.392;10.836;2023-05-19T11:21:42;14.50;99.90
6114;DHT22;3087;48.392;10.836;2023-05-19T11:24:31;14.60;99.90
6114;DHT22;3087;48.392;10.836;2023-05-19T11:26:57;14.90;99.90
6114;DHT22;3087;48.392;10.836;2023-05-19T11:29:23;14.80;99.90
6114;DHT22;3087;48.392;10.836;2023-05-19T11:31:50;13.30;99.90
6114;DHT22;3087;48.392;10.836;2023-05-19T11:34:16;14.80;99.90
6114;DHT22;3087;48.392;10.836;2023-05-19T11:36:43;15.80;99.90
6114;DHT22;3087;48.392;10.836;2023-05-19T11:39:10;15.10;99.90
6114;DHT22;3087;48.392;10.836;2023-05-19T11:41:39;16.70;99.90
6114;DHT22;3087;48.392;10.836;2023-05-19T11:44:10;12.40;99.90
6114;DHT22;3087;48.392;10.836;2023-05-19T11:46:36;14.50;99.90
6114;DHT22;3087;48.392;10.836;2023-05-19T11:49:03;14.40;99.90
6114;DHT22;3087;48.392;10.836;2023-05-19T11:51:29;14.50;99.90
6114;DHT22;3087;48.392;10.836;2023-05-19T11:53:57;14.50;99.90
6114;DHT22;3087;48.392;10.836;2023-05-19T11:56:26;16.80;99.90
6114;DHT22;3087;48.392;10.836;2023-05-19T11:58:52;14.60;99.90
6114;DHT22;3087;48.392;10.836;2023-05-19T12:01:17;14.50;99.90
6114;DHT22;3087;48.392;10.836;2023-05-19T12:03:43;15.70;99.90
6114;DHT22;3087;48.392;10.836;2023-05-19T12:06:10;12.30;99.90
6114;DHT22;3087;48.392;10.836;2023-05-19T12:08:37;14.80;99.90
6114;DHT22;3087;48.392;10.836;2023-05-19T12:11:04;14.80;99.90
6114;DHT22;3087;48.392;10.836;2023-05-19T12:13:30;14.90;99.90
6114;DHT22;3087;48.392;10.836;2023-05-19T12:15:59;15.00;99.90
6114;DHT22;3087;48.392;10.836;2023-05-19T12:18:28;15.10;99.90
6114;DHT22;3087;48.392;10.836;2023-05-19T12:20:56;15.10;99.90
6114;DHT22;3087;48.392;10.836;2023-05-19T12:23:22;14.90;99.90
6114;DHT22;3087;48.392;10.836;2023-05-19T12:25:49;15.00;99.90
6114;DHT22;3087;48.392;10.836;2023-05-19T12:28:15;15.00;99.90
6114;DHT22;3087;48.392;10.836;2023-05-19T12:30:46;15.00;99.90
6114;DHT22;3087;48.392;10.836;2023-05-19T12:33:14;14.80;99.90
6114;DHT22;3087;48.392;10.836;2023-05-19T12:35:41;14.80;99.90
6114;DHT22;3087;48.392;10.836;2023-05-19T12:38:07;15.10;99.90
6114;DHT22;3087;48.392;10.836;2023-05-19T12:40:35;15.10;99.90
6114;DHT22;3087;48.392;10.836;2023-05-19T12:43:02;15.20;99.90
6114;DHT22;3087;48.392;10.836;2023-05-19T12:45:35;15.40;99.90
6114;DHT22;3087;48.392;10.836;2023-05-19T12:48:09;15.30;99.90
6114;DHT22;3087;48.392;10.836;2023-05-19T12:50:39;15.10;99.90
6114;DHT22;3087;48.392;10.836;2023-05-19T12:53:08;15.20;99.90
6114;DHT22;3087;48.392;10.836;2023-05-19T12:55:42;15.50;99.90
6114;DHT22;3087;48.392;10.836;2023-05-19T12:58:08;15.60;99.90
6114;DHT22;3087;48.392;10.836;2023-05-19T13:00:42;15.60;99.90
6114;DHT22;3087;48.392;10.836;2023-05-19T13:03:14;15.60;99.90
6114;DHT22;3087;48.392;10.836;2023-05-19T13:05:42;15.80;99.90
6114;DHT22;3087;48.392;10.836;2023-05-19T13:08:10;16.00;99.90
6114;DHT22;3087;48.392;10.836;2023-05-19T13:10:37;16.30;99.90
6114;DHT22;3087;48.392;10.836;2023-05-19T13:13:02;16.30;99.90
6114;DHT22;3087;48.392;10.836;2023-05-19T13:15:31;16.50;99.90
6114;DHT22;3087;48.392;10.836;2023-05-19T13:17:59;16.20;99.90
6114;DHT22;3087;48.392;10.836;2023-05-19T13:20:25;16.40;99.90
6114;DHT22;3087;48.392;10.836;2023-05-19T13:22:51;16.70;99.90
6114;DHT22;3087;48.392;10.836;2023-05-19T13:25:17;16.80;99.90
6114;DHT22;3087;48.392;10.836;2023-05-19T13:27:46;16.80;99.90
6114;DHT22;3087;48.392;10.836;2023-05-19T13:30:12;16.90;99.90
6114;DHT22;3087;48.392;10.836;2023-05-19T13:32:38;17.90;99.90
6114;DHT22;3087;48.392;10.836;2023-05-19T13:35:04;17.30;99.90
6114;DHT22;3087;48.392;10.836;2023-05-19T13:37:30;17.40;99.90
6114;DHT22;3087;48.392;10.836;2023-05-19T13:39:55;17.30;99.90
6114;DHT22;3087;48.392;10.836;2023-05-19T13:42:24;17.30;99.90
6114;DHT22;3087;48.392;10.836;2023-05-19T13:44:53;17.30;99.90
6114;DHT22;3087;48.392;10.836;2023-05-19T13:47:19;17.50;99.90
6114;DHT22;3087;48.392;10.836;2023-05-19T13:49:45;17.40;99.90
6114;DHT22;3087;48.392;10.836;2023-05-19T13:52:11;17.50;99.90
6114;DHT22;3087;48.392;10.836;2023-05-19T13:54:37;17.00;99.90
6114;DHT22;3087;48.392;10.836;2023-05-19T13:57:03;17.00;99.90
6114;DHT22;3087;48.392;10.836;2023-05-19T13:59:28;16.50;99.90
6114;DHT22;3087;48.392;10.836;2023-05-19T14:01:54;16.40;99.90
6114;DHT22;3087;48.392;10.836;2023-05-19T14:04:19;16.40;99.90
6114;DHT22;3087;48.392;10.836;2023-05-19T14:06:45;16.70;99.90
6114;DHT22;3087;48.392;10.836;2023-05-19T14:09:11;16.80;99.90
6114;DHT22;3087;48.392;10.836;2023-05-19T14:11:37;17.00;99.90
6114;DHT22;3087;48.392;10.836;2023-05-19T14:14:03;17.40;99.90
6114;DHT22;3087;48.392;10.836;2023-05-19T14:16:29;17.20;99.90
6114;DHT22;3087;48.392;10.836;2023-05-19T14:18:55;17.40;99.90
6114;DHT22;3087;48.392;10.836;2023-05-19T14:21:21;17.50;99.90
6114;DHT22;3087;48.392;10.836;2023-05-19T14:23:47;17.20;99.90
6114;DHT22;3087;48.392;10.836;2023-05-19T14:26:12;17.10;99.90
6114;DHT22;3087;48.392;10.836;2023-05-19T14:28:38;17.00;99.90
6114;DHT22;3087;48.392;10.836;2023-05-19T14:31:04;17.10;99.90
6114;DHT22;3087;48.392;10.836;2023-05-19T14:33:30;17.10;99.90
6114;DHT22;3087;48.392;10.836;2023-05-19T14:35:56;17.30;99.90
6114;DHT22;3087;48.392;10.836;2023-05-19T14:38:24;17.80;99.90
6114;DHT22;3087;48.392;10.836;2023-05-19T14:40:50;17.70;99.90
6114;DHT22;3087;48.392;10.836;2023-05-19T14:43:16;18.00;99.90
6114;DHT22;3087;48.392;10.836;2023-05-19T14:45:41;18.20;99.90
6114;DHT22;3087;48.392;10.836;2023-05-19T14:48:07;18.50;99.90
6114;DHT22;3087;48.392;10.836;2023-05-19T14:50:34;18.90;99.90
6114;DHT22;3087;48.392;10.836;2023-05-19T14:53:00;19.00;99.90
6114;DHT22;3087;48.392;10.836;2023-05-19T14:55:26;19.00;99.90
6114;DHT22;3087;48.392;10.836;2023-05-19T14:57:51;19.30;99.90
6114;DHT22;3087;48.392;10.836;2023-05-19T15:00:17;19.60;99.90
6114;DHT22;3087;48.392;10.836;2023-05-19T15:02:49;19.60;99.90
6114;DHT22;3087;48.392;10.836;2023-05-19T15:05:20;19.60;99.90
6114;DHT22;3087;48.392;10.836;2023-05-19T15:07:51;19.70;99.90
6114;DHT22;3087;48.392;10.836;2023-05-19T15:10:17;19.60;99.90
6114;DHT22;3087;48.392;10.836;2023-05-19T15:12:58;19.50;99.90
6114;DHT22;3087;48.392;10.836;2023-05-19T15:15:29;19.20;99.90
6114;DHT22;3087;48.392;10.836;2023-05-19T15:17:55;19.50;99.90
6114;DHT22;3087;48.392;10.836;2023-05-19T15:20:20;17.30;99.90
6114;DHT22;3087;48.392;10.836;2023-05-19T15:22:46;19.30;99.90
6114;DHT22;3087;48.392;10.836;2023-05-19T15:25:12;19.30;99.90
6114;DHT22;3087;48.392;10.836;2023-05-19T15:27:38;19.20;99.90
6114;DHT22;3087;48.392;10.836;2023-05-19T15:30:04;19.00;99.90
6114;DHT22;3087;48.392;10.836;2023-05-19T15:32:30;18.90;99.90
6114;DHT22;3087;48.392;10.836;2023-05-19T15:34:56;18.70;99.90
6114;DHT22;3087;48.392;10.836;2023-05-19T15:37:21;18.90;99.90
6114;DHT22;3087;48.392;10.836;2023-05-19T15:39:47;19.20;99.90
6114;DHT22;3087;48.392;10.836;2023-05-19T15:42:13;19.20;99.90
6114;DHT22;3087;48.392;10.836;2023-05-19T15:44:38;19.20;99.90
6114;DHT22;3087;48.392;10.836;2023-05-19T15:47:04;19.40;99.90
6114;DHT22;3087;48.392;10.836;2023-05-19T15:49:29;19.70;99.90
6114;DHT22;3087;48.392;10.836;2023-05-19T15:51:55;19.70;99.90
6114;DHT22;3087;48.392;10.836;2023-05-19T15:54:23;19.70;99.90
6114;DHT22;3087;48.392;10.836;2023-05-19T15:56:49;19.60;99.90
6114;DHT22;3087;48.392;10.836;2023-05-19T15:59:15;19.50;99.90
6114;DHT22;3087;48.392;10.836;2023-05-19T16:01:41;19.30;99.90
6114;DHT22;3087;48.392;10.836;2023-05-19T16:04:06;19.00;99.90
6114;DHT22;3087;48.392;10.836;2023-05-19T16:06:32;19.10;99.90
6114;DHT22;3087;48.392;10.836;2023-05-19T16:08:57;19.00;99.90
6114;DHT22;3087;48.392;10.836;2023-05-19T16:11:23;18.70;99.90
6114;DHT22;3087;48.392;10.836;2023-05-19T16:13:49;18.70;99.90